createdAt,value
2023-08-19T00:01:10.517Z,74.30
2023-08-19T00:03:38.271Z,73.18
2023-08-19T00:06:09.903Z,66.75
2023-08-19T00:08:37.659Z,71.53
2023-08-19T00:11:07.252Z,69.07
2023-08-19T00:13:34.345Z,71.40
2023-08-19T00:16:00.814Z,79.57
2023-08-19T00:18:28.631Z,68.47
2023-08-19T00:20:56.497Z,72.07
2023-08-19T00:23:24.645Z,68.53
2023-08-19T00:25:51.344Z,71.63
2023-08-19T00:28:25.224Z,68.65
2023-08-19T00:30:51.787Z,69.13
2023-08-19T00:33:27.036Z,71.18
2023-08-19T00:35:54.909Z,74.82
2023-08-19T00:38:23.747Z,68.33
2023-08-19T00:40:51.752Z,71.53
2023-08-19T00:43:20.728Z,75.65
2023-08-19T00:45:51.244Z,66.43
2023-08-19T00:48:24.175Z,71.93
2023-08-19T00:50:50.773Z,67.63
2023-08-19T00:53:17.601Z,67.25
2023-08-19T00:55:44.452Z,69.05
2023-08-19T00:58:10.997Z,60.72
2023-08-19T01:00:38.687Z,71.15
2023-08-19T01:03:06.495Z,64.07
2023-08-19T01:05:44.753Z,67.82
2023-08-19T01:08:14.120Z,65.63
2023-08-19T01:10:43.944Z,62.33
2023-08-19T01:13:15.789Z,62.95
2023-08-19T01:15:48.520Z,65.40
2023-08-19T01:18:17.640Z,60.85
2023-08-19T01:20:44.282Z,64.18
2023-08-19T01:23:22.827Z,63.90
2023-08-19T01:25:52.292Z,68.90
2023-08-19T01:28:21.855Z,64.77
2023-08-19T01:30:48.493Z,67.10
2023-08-19T01:33:15.621Z,63.50
2023-08-19T01:35:51.206Z,67.00
2023-08-19T01:38:36.371Z,65.18
2023-08-19T01:41:04.320Z,67.40
2023-08-19T01:43:31.848Z,61.78
2023-08-19T01:45:58.964Z,62.90
2023-08-19T01:48:25.558Z,62.50
2023-08-19T01:50:52.417Z,63.63
2023-08-19T01:53:21.282Z,66.10
2023-08-19T01:55:47.945Z,63.40
2023-08-19T01:58:14.718Z,62.88
2023-08-19T02:00:41.301Z,64.68
2023-08-19T02:03:08.536Z,54.78
2023-08-19T02:05:34.977Z,58.83
2023-08-19T02:08:01.472Z,60.00
2023-08-19T02:10:28.042Z,61.45
2023-08-19T02:12:54.647Z,61.13
2023-08-19T02:15:22.803Z,62.97
2023-08-19T02:17:50.632Z,60.77
2023-08-19T02:20:17.194Z,64.50
2023-08-19T02:22:43.680Z,58.38
2023-08-19T02:25:10.589Z,55.75
2023-08-19T02:27:40.332Z,60.40
2023-08-19T02:30:07.174Z,58.60
2023-08-19T02:32:33.734Z,55.53
2023-08-19T02:35:03.419Z,54.65
2023-08-19T02:37:30.238Z,51.97
2023-08-19T02:39:57.163Z,53.00
2023-08-19T02:42:23.552Z,52.13
2023-08-19T02:44:53.339Z,54.15
2023-08-19T02:47:21.188Z,55.38
2023-08-19T02:49:47.633Z,49.20
2023-08-19T02:52:14.561Z,49.00
2023-08-19T02:54:41.430Z,50.50
2023-08-19T02:57:07.884Z,51.22
2023-08-19T02:59:34.291Z,44.20
2023-08-19T03:02:00.860Z,50.33
2023-08-19T03:04:31.062Z,46.92
2023-08-19T03:06:59.320Z,46.07
2023-08-19T03:09:25.785Z,46.83
2023-08-19T03:11:52.191Z,46.42
2023-08-19T03:14:18.728Z,44.40
2023-08-19T03:16:45.317Z,42.78
2023-08-19T03:19:12.588Z,43.40
2023-08-19T03:21:38.997Z,46.60
2023-08-19T03:24:05.731Z,48.22
2023-08-19T03:26:33.273Z,52.42
2023-08-19T03:28:59.912Z,45.03
2023-08-19T03:31:26.719Z,42.80
2023-08-19T03:33:54.252Z,41.65
2023-08-19T03:36:23.338Z,39.38
2023-08-19T03:38:50.574Z,40.20
2023-08-19T03:41:17.533Z,41.83
2023-08-19T03:43:45.067Z,43.33
2023-08-19T03:46:12.188Z,51.85
2023-08-19T03:48:38.586Z,50.85
2023-08-19T03:51:06.593Z,53.58
2023-08-19T03:53:33.228Z,50.58
2023-08-19T03:56:01.153Z,50.60
2023-08-19T03:58:27.546Z,58.45
2023-08-19T04:00:53.955Z,52.45
2023-08-19T04:03:20.785Z,52.20
2023-08-19T04:05:47.414Z,50.88
2023-08-19T04:08:14.069Z,51.33
2023-08-19T04:10:41.999Z,50.13
2023-08-19T04:13:08.593Z,50.05
2023-08-19T04:15:36.481Z,49.10
2023-08-19T04:18:05.140Z,54.38
2023-08-19T04:20:38.009Z,59.90
2023-08-19T04:23:06.317Z,46.33
2023-08-19T04:25:33.085Z,49.95
2023-08-19T04:28:00.469Z,53.55
2023-08-19T04:30:27.066Z,47.22
2023-08-19T04:32:59.552Z,46.83
2023-08-19T04:35:27.462Z,49.20
2023-08-19T04:37:54.057Z,50.72
2023-08-19T04:40:20.747Z,44.20
2023-08-19T04:42:47.263Z,51.10
2023-08-19T04:45:14.127Z,48.67
2023-08-19T04:47:41.688Z,47.25
2023-08-19T04:50:09.754Z,45.80
2023-08-19T04:52:38.799Z,45.40
2023-08-19T04:55:05.770Z,48.13
2023-08-19T04:57:32.545Z,47.97
2023-08-19T05:00:01.543Z,43.20
2023-08-19T05:02:28.099Z,42.92
2023-08-19T05:04:56.145Z,39.78
2023-08-19T05:07:22.703Z,45.20
2023-08-19T05:09:49.374Z,36.00
2023-08-19T05:12:15.910Z,39.83
2023-08-19T05:14:44.083Z,39.92
2023-08-19T05:17:10.527Z,39.92
2023-08-19T05:19:38.136Z,38.85
2023-08-19T05:22:04.920Z,36.43
2023-08-19T05:24:31.966Z,35.58
2023-08-19T05:26:58.532Z,35.30
2023-08-19T05:29:25.366Z,35.35
2023-08-19T05:31:51.959Z,36.13
2023-08-19T05:34:20.202Z,35.43
2023-08-19T05:36:47.027Z,33.22
2023-08-19T05:39:13.864Z,36.00
2023-08-19T05:41:40.284Z,35.90
2023-08-19T05:44:07.257Z,31.83
2023-08-19T05:46:36.448Z,35.73
2023-08-19T05:49:03.249Z,35.03
2023-08-19T05:51:29.808Z,36.28
2023-08-19T05:54:00.042Z,34.75
2023-08-19T05:56:26.448Z,33.25
2023-08-19T05:58:55.125Z,29.90
2023-08-19T06:01:24.893Z,31.20
2023-08-19T06:03:52.665Z,30.10
2023-08-19T06:06:20.056Z,32.78
2023-08-19T06:08:46.497Z,28.85
2023-08-19T06:11:13.023Z,24.27
2023-08-19T06:13:39.618Z,30.15
2023-08-19T06:16:06.357Z,29.40
2023-08-19T06:18:34.564Z,26.45
2023-08-19T06:21:02.430Z,27.05
2023-08-19T06:23:29.811Z,27.60
2023-08-19T06:25:56.234Z,30.40
2023-08-19T06:28:22.933Z,24.73
2023-08-19T06:30:51.188Z,31.45
2023-08-19T06:33:18.640Z,28.00
2023-08-19T06:35:49.666Z,23.70
2023-08-19T06:38:20.508Z,26.27
2023-08-19T06:41:02.133Z,29.13
2023-08-19T06:43:28.820Z,31.20
2023-08-19T06:45:56.136Z,26.52
2023-08-19T06:48:24.175Z,28.00
2023-08-19T06:50:51.388Z,28.73
2023-08-19T06:53:18.158Z,28.98
2023-08-19T06:55:49.393Z,27.70
2023-08-19T06:58:20.774Z,29.85
2023-08-19T07:00:49.163Z,27.27
2023-08-19T07:03:19.574Z,26.52
2023-08-19T07:05:48.433Z,30.33
2023-08-19T07:08:16.101Z,20.90
2023-08-19T07:10:43.198Z,26.98
2023-08-19T07:13:09.841Z,23.47
2023-08-19T07:15:44.477Z,26.45
2023-08-19T07:18:13.463Z,23.40
2023-08-19T07:20:40.251Z,29.20
2023-08-19T07:23:09.855Z,23.73
2023-08-19T07:25:36.763Z,22.20
2023-08-19T07:28:04.148Z,23.35
2023-08-19T07:30:30.828Z,25.15
2023-08-19T07:32:57.746Z,26.55
2023-08-19T07:35:24.738Z,30.17
2023-08-19T07:37:52.902Z,23.03
2023-08-19T07:40:19.525Z,23.25
2023-08-19T07:42:46.831Z,26.25
2023-08-19T07:45:13.291Z,22.20
2023-08-19T07:47:39.839Z,25.58
2023-08-19T07:50:06.450Z,23.13
2023-08-19T07:52:33.112Z,26.70
2023-08-19T07:55:02.882Z,21.60
2023-08-19T07:57:29.558Z,20.90
2023-08-19T07:59:56.021Z,22.08
2023-08-19T08:02:22.627Z,22.27
2023-08-19T08:04:49.628Z,26.35
2023-08-19T08:07:17.593Z,22.70
2023-08-19T08:09:46.525Z,27.77
2023-08-19T08:12:13.141Z,25.70
2023-08-19T08:14:40.701Z,26.27
2023-08-19T08:17:07.095Z,31.63
2023-08-19T08:19:33.508Z,29.05
2023-08-19T08:21:59.949Z,42.40
2023-08-19T08:24:27.317Z,35.08
2023-08-19T08:26:57.625Z,34.23
2023-08-19T08:29:25.502Z,35.42
2023-08-19T08:31:52.100Z,31.70
2023-08-19T08:34:21.942Z,35.33
2023-08-19T08:36:49.785Z,27.25
2023-08-19T08:39:17.174Z,28.47
2023-08-19T08:41:45.410Z,34.50
2023-08-19T08:44:13.274Z,34.17
2023-08-19T08:46:40.289Z,30.50
2023-08-19T08:49:06.957Z,27.58
2023-08-19T08:51:33.498Z,32.17
2023-08-19T08:54:01.887Z,32.25
2023-08-19T08:56:28.457Z,26.65
2023-08-19T08:58:54.872Z,22.98
2023-08-19T09:01:21.642Z,24.02
2023-08-19T09:03:49.057Z,25.77
2023-08-19T09:06:17.148Z,24.75
2023-08-19T09:09:03.445Z,20.05
2023-08-19T09:11:35.008Z,26.27
2023-08-19T09:14:14.523Z,20.90
2023-08-19T09:16:41.106Z,35.13
2023-08-19T09:19:08.663Z,101.15
2023-08-19T09:21:36.548Z,30.17
2023-08-19T09:24:03.389Z,34.60
2023-08-19T09:26:30.097Z,31.17
2023-08-19T09:29:00.228Z,37.30
2023-08-19T09:31:28.314Z,36.00
2023-08-19T09:33:55.621Z,36.60
2023-08-19T09:36:26.406Z,45.75
2023-08-19T09:38:55.944Z,36.60
2023-08-19T09:41:33.698Z,29.63
2023-08-19T09:44:00.323Z,27.80
2023-08-19T09:46:42.666Z,33.60
2023-08-19T09:49:10.757Z,28.05
2023-08-19T09:51:37.935Z,26.15
2023-08-19T09:54:12.051Z,24.83
2023-08-19T09:56:38.797Z,18.38
2023-08-19T09:59:05.533Z,18.88
2023-08-19T10:01:34.580Z,14.95
2023-08-19T10:04:00.993Z,16.38
2023-08-19T10:06:32.366Z,11.97
2023-08-19T10:09:05.987Z,12.32
2023-08-19T10:11:34.504Z,16.65
2023-08-19T10:14:02.024Z,18.35
2023-08-19T10:16:29.423Z,18.73
2023-08-19T10:18:56.328Z,15.10
2023-08-19T10:21:24.105Z,18.73
2023-08-19T10:23:52.674Z,14.95
2023-08-19T10:26:23.314Z,11.98
2023-08-19T10:29:06.623Z,12.82
2023-08-19T10:31:34.381Z,13.13
2023-08-19T10:34:10.631Z,16.08
2023-08-19T10:36:40.996Z,14.32
2023-08-19T10:39:15.585Z,23.35
2023-08-19T10:41:47.080Z,19.13
2023-08-19T10:44:14.546Z,14.47
2023-08-19T10:46:44.146Z,14.38
2023-08-19T10:49:15.094Z,12.57
2023-08-19T10:51:55.325Z,19.65
2023-08-19T10:54:27.128Z,15.02
2023-08-19T10:57:04.545Z,20.20
2023-08-19T10:59:32.206Z,15.15
2023-08-19T11:01:58.780Z,12.35
2023-08-19T11:04:35.428Z,17.25
2023-08-19T11:07:03.976Z,15.35
2023-08-19T11:09:37.205Z,14.30
2023-08-19T11:12:04.336Z,14.63
2023-08-19T11:14:33.289Z,16.88
2023-08-19T11:17:00.082Z,13.75
2023-08-19T11:19:27.350Z,9.63
2023-08-19T11:21:54.247Z,11.17
2023-08-19T11:24:21.213Z,9.10
2023-08-19T11:26:50.055Z,10.38
2023-08-19T11:29:17.755Z,10.98
2023-08-19T11:31:44.573Z,16.23
2023-08-19T11:34:13.716Z,12.90
2023-08-19T11:36:41.883Z,9.77
2023-08-19T11:39:11.850Z,11.57
2023-08-19T11:41:40.419Z,10.65
2023-08-19T11:44:07.460Z,12.57
2023-08-19T11:46:37.576Z,10.23
2023-08-19T11:49:06.248Z,12.48
2023-08-19T11:51:32.785Z,9.27
2023-08-19T11:54:04.118Z,9.45
2023-08-19T11:56:32.090Z,7.05
2023-08-19T11:58:58.910Z,10.93
2023-08-19T12:01:29.001Z,9.85
2023-08-19T12:03:56.273Z,9.70
2023-08-19T12:06:24.608Z,13.10
2023-08-19T12:08:51.100Z,7.20
2023-08-19T12:11:24.692Z,10.40
2023-08-19T12:13:51.434Z,9.75
2023-08-19T12:16:20.016Z,8.88
2023-08-19T12:18:47.103Z,12.18
2023-08-19T12:21:16.087Z,8.98
2023-08-19T12:23:44.974Z,11.97
2023-08-19T12:26:13.505Z,10.32
2023-08-19T12:28:41.098Z,13.90
2023-08-19T12:31:07.550Z,11.05
2023-08-19T12:33:39.375Z,12.23
2023-08-19T12:36:17.704Z,8.70
2023-08-19T12:38:45.172Z,13.25
2023-08-19T12:41:13.289Z,13.10
2023-08-19T12:43:39.978Z,15.55
2023-08-19T12:46:06.564Z,14.13
2023-08-19T12:48:33.403Z,14.60
2023-08-19T12:50:59.993Z,12.55
2023-08-19T12:53:27.369Z,19.48
2023-08-19T12:55:53.902Z,16.25
2023-08-19T12:58:23.349Z,13.57
2023-08-19T13:00:49.877Z,13.63
2023-08-19T13:03:16.730Z,12.68
2023-08-19T13:05:43.827Z,13.93
2023-08-19T13:08:10.849Z,15.50
2023-08-19T13:10:37.453Z,16.42
2023-08-19T13:13:05.368Z,15.70
2023-08-19T13:15:33.478Z,20.45
2023-08-19T13:18:01.164Z,21.38
2023-08-19T13:20:28.563Z,20.30
2023-08-19T13:22:55.986Z,20.42
2023-08-19T13:25:24.039Z,20.50
2023-08-19T13:27:52.045Z,20.65
2023-08-19T13:30:20.227Z,22.95
2023-08-19T13:32:46.939Z,24.90
2023-08-19T13:35:13.654Z,15.20
2023-08-19T13:37:41.435Z,19.73
2023-08-19T13:40:09.595Z,20.13
2023-08-19T13:42:36.419Z,16.10
2023-08-19T13:45:05.670Z,15.98
2023-08-19T13:47:32.841Z,22.27
2023-08-19T13:50:00.058Z,23.40
2023-08-19T13:52:49.075Z,21.80
2023-08-19T13:55:17.488Z,19.15
2023-08-19T13:57:44.523Z,17.90
2023-08-19T14:00:17.100Z,20.15
2023-08-19T14:02:45.098Z,24.87
2023-08-19T14:05:15.503Z,20.05
2023-08-19T14:07:45.209Z,26.23
2023-08-19T14:10:13.085Z,19.42
2023-08-19T14:12:39.746Z,25.45
2023-08-19T14:15:06.790Z,21.03
2023-08-19T14:17:34.509Z,22.00
2023-08-19T14:20:02.348Z,24.23
2023-08-19T14:22:32.727Z,23.35
2023-08-19T14:25:00.300Z,22.83
2023-08-19T14:27:35.525Z,16.17
2023-08-19T14:30:02.594Z,24.65
2023-08-19T14:32:30.288Z,19.90
2023-08-19T14:34:56.959Z,19.73
2023-08-19T14:37:24.176Z,20.23
2023-08-19T14:39:50.782Z,19.80
2023-08-19T14:42:24.868Z,18.08
2023-08-19T14:44:52.916Z,20.58
2023-08-19T14:47:21.533Z,15.80
2023-08-19T14:49:52.373Z,19.02
2023-08-19T14:52:20.451Z,20.53
2023-08-19T14:54:47.576Z,17.52
2023-08-19T14:57:15.690Z,21.08
2023-08-19T14:59:42.590Z,22.80
2023-08-19T15:02:09.665Z,17.58
2023-08-19T15:04:37.160Z,21.07
2023-08-19T15:07:08.014Z,22.67
2023-08-19T15:09:34.524Z,19.38
2023-08-19T15:12:01.167Z,18.20
2023-08-19T15:14:27.621Z,19.20
2023-08-19T15:16:55.534Z,21.60
2023-08-19T15:19:23.560Z,19.23
2023-08-19T15:21:52.473Z,19.73
2023-08-19T15:24:19.303Z,19.58
2023-08-19T15:26:47.645Z,16.35
2023-08-19T15:29:14.929Z,17.97
2023-08-19T15:31:44.330Z,18.25
2023-08-19T15:34:11.615Z,19.05
2023-08-19T15:36:41.769Z,14.48
2023-08-19T15:39:08.865Z,17.55
2023-08-19T15:41:35.721Z,16.07
2023-08-19T15:44:03.019Z,18.35
2023-08-19T15:46:29.579Z,20.35
2023-08-19T15:48:56.448Z,19.73
2023-08-19T15:51:22.934Z,15.43
2023-08-19T15:53:50.499Z,19.67
2023-08-19T15:56:18.209Z,18.55
2023-08-19T15:58:45.558Z,14.52
2023-08-19T16:01:12.298Z,14.93
2023-08-19T16:03:39.160Z,13.85
2023-08-19T16:06:07.093Z,21.07
2023-08-19T16:08:34.109Z,15.23
2023-08-19T16:11:04.176Z,13.50
2023-08-19T16:13:35.854Z,15.15
2023-08-19T16:16:02.655Z,18.13
2023-08-19T16:18:34.691Z,19.07
2023-08-19T16:21:03.000Z,14.77
2023-08-19T16:23:29.717Z,19.55
2023-08-19T16:25:56.654Z,11.88
2023-08-19T16:28:23.412Z,16.80
2023-08-19T16:30:52.924Z,22.83
2023-08-19T16:33:22.942Z,13.88
2023-08-19T16:35:56.320Z,21.83
2023-08-19T16:38:23.066Z,15.48
2023-08-19T16:40:53.042Z,13.82
2023-08-19T16:43:21.483Z,18.77
2023-08-19T16:46:14.276Z,19.20
2023-08-19T16:48:42.473Z,16.80
2023-08-19T16:51:09.198Z,17.67
2023-08-19T16:53:37.793Z,15.25
2023-08-19T16:56:05.388Z,16.13
2023-08-19T16:58:31.883Z,15.20
2023-08-19T17:01:04.698Z,11.88
2023-08-19T17:03:33.386Z,16.20
2023-08-19T17:06:01.013Z,14.05
2023-08-19T17:08:28.055Z,12.13
2023-08-19T17:10:55.623Z,13.25
2023-08-19T17:13:22.400Z,14.55
2023-08-19T17:15:56.678Z,13.90
2023-08-19T17:18:26.727Z,14.90
2023-08-19T17:20:54.185Z,13.83
2023-08-19T17:23:21.533Z,11.73
2023-08-19T17:25:52.753Z,14.82
2023-08-19T17:28:19.542Z,12.70
2023-08-19T17:30:46.096Z,13.38
2023-08-19T17:33:13.640Z,10.77
2023-08-19T17:35:41.171Z,13.27
2023-08-19T17:38:08.102Z,15.02
2023-08-19T17:40:37.524Z,12.20
2023-08-19T17:43:04.953Z,13.15
2023-08-19T17:45:31.336Z,12.67
2023-08-19T17:47:58.255Z,13.18
2023-08-19T17:50:26.291Z,10.35
2023-08-19T17:52:53.075Z,12.25
2023-08-19T17:55:22.164Z,11.32
2023-08-19T17:57:50.248Z,13.37
2023-08-19T18:00:17.396Z,9.95
2023-08-19T18:02:43.978Z,9.52
2023-08-19T18:05:10.612Z,10.43
2023-08-19T18:07:37.528Z,12.13
2023-08-19T18:10:07.233Z,7.10
2023-08-19T18:12:34.124Z,9.13
2023-08-19T18:15:00.695Z,9.80
2023-08-19T18:17:27.374Z,10.80
2023-08-19T18:19:54.018Z,11.60
2023-08-19T18:22:21.689Z,8.60
2023-08-19T18:24:52.411Z,10.82
2023-08-19T18:27:20.900Z,11.02
2023-08-19T18:29:47.435Z,10.70
2023-08-19T18:32:13.989Z,10.10
2023-08-19T18:34:42.035Z,13.67
2023-08-19T18:37:08.818Z,10.40
2023-08-19T18:39:35.399Z,9.88
2023-08-19T18:42:01.945Z,11.13
2023-08-19T18:44:28.424Z,10.68
2023-08-19T18:46:55.112Z,10.43
2023-08-19T18:49:21.860Z,14.15
2023-08-19T18:51:56.500Z,11.27
2023-08-19T18:54:23.066Z,12.20
2023-08-19T18:56:51.147Z,14.52
2023-08-19T18:59:17.721Z,14.33
2023-08-19T19:01:44.225Z,12.20
2023-08-19T19:04:12.427Z,7.97
2023-08-19T19:06:39.042Z,13.27
2023-08-19T19:09:05.845Z,12.80
2023-08-19T19:11:32.569Z,16.67
2023-08-19T19:14:00.015Z,14.13
2023-08-19T19:16:27.024Z,11.32
2023-08-19T19:18:53.503Z,10.32
2023-08-19T19:21:22.885Z,10.88
2023-08-19T19:23:53.217Z,11.97
2023-08-19T19:26:20.153Z,14.93
2023-08-19T19:28:46.685Z,14.45
2023-08-19T19:31:13.406Z,9.95
2023-08-19T19:33:41.005Z,10.55
2023-08-19T19:36:07.470Z,13.47
2023-08-19T19:38:33.853Z,10.38
2023-08-19T19:41:01.286Z,12.68
2023-08-19T19:43:28.197Z,11.55
2023-08-19T19:45:54.719Z,11.30
2023-08-19T19:48:23.704Z,12.63
2023-08-19T19:50:50.319Z,12.32
2023-08-19T19:53:16.752Z,16.08
2023-08-19T19:55:44.956Z,18.63
2023-08-19T19:58:15.454Z,18.23
2023-08-19T20:00:41.940Z,12.27
2023-08-19T20:03:14.497Z,14.23
2023-08-19T20:05:41.823Z,16.23
2023-08-19T20:08:08.343Z,13.90
2023-08-19T20:10:35.400Z,14.18
2023-08-19T20:13:02.086Z,13.50
2023-08-19T20:15:30.839Z,9.30
2023-08-19T20:17:58.320Z,14.45
2023-08-19T20:20:24.775Z,15.88
2023-08-19T20:22:51.991Z,15.98
2023-08-19T20:25:21.625Z,12.33
2023-08-19T20:27:49.727Z,12.65
2023-08-19T20:30:16.246Z,14.52
2023-08-19T20:32:42.705Z,11.73
2023-08-19T20:35:09.370Z,15.43
2023-08-19T20:37:36.557Z,14.87
2023-08-19T20:40:04.373Z,12.57
2023-08-19T20:42:30.891Z,10.90
2023-08-19T20:44:59.486Z,14.93
2023-08-19T20:47:26.354Z,14.27
2023-08-19T20:49:53.230Z,12.07
2023-08-19T20:52:21.646Z,16.15
2023-08-19T20:54:48.012Z,12.70
2023-08-19T20:57:14.602Z,13.27
2023-08-19T20:59:41.068Z,15.68
2023-08-19T21:02:07.507Z,18.47
2023-08-19T21:04:34.150Z,16.95
2023-08-19T21:07:00.858Z,19.98
2023-08-19T21:09:29.658Z,15.00
2023-08-19T21:11:56.033Z,20.02
2023-08-19T21:14:23.927Z,15.53
2023-08-19T21:16:51.472Z,16.05
2023-08-19T21:19:19.304Z,15.65
2023-08-19T21:21:47.458Z,15.35
2023-08-19T21:24:16.476Z,16.67
2023-08-19T21:26:47.672Z,18.13
2023-08-19T21:29:14.093Z,15.98
2023-08-19T21:31:42.008Z,13.32
2023-08-19T21:34:11.020Z,16.45
2023-08-19T21:36:37.600Z,21.30
2023-08-19T21:39:04.139Z,15.90
2023-08-19T21:41:31.080Z,18.02
2023-08-19T21:43:57.817Z,10.38
2023-08-19T21:46:24.478Z,13.57
2023-08-19T21:48:51.544Z,20.15
2023-08-19T21:51:20.924Z,12.13
2023-08-19T21:53:47.466Z,14.77
2023-08-19T21:56:14.280Z,13.80
2023-08-19T21:58:41.016Z,10.98
2023-08-19T22:01:08.337Z,15.98
2023-08-19T22:03:34.923Z,18.10
2023-08-19T22:06:04.225Z,17.73
2023-08-19T22:08:31.124Z,16.60
2023-08-19T22:10:57.720Z,11.88
2023-08-19T22:13:24.239Z,13.95
2023-08-19T22:15:50.915Z,11.03
2023-08-19T22:18:18.826Z,13.07
2023-08-19T22:20:50.656Z,17.52
2023-08-19T22:23:20.905Z,14.13
2023-08-19T22:25:51.654Z,17.45
2023-08-19T22:28:18.326Z,13.90
2023-08-19T22:30:46.132Z,15.65
2023-08-19T22:33:12.929Z,13.60
2023-08-19T22:35:46.742Z,12.82
2023-08-19T22:38:14.711Z,16.67
2023-08-19T22:40:43.465Z,19.20
2023-08-19T22:43:10.453Z,9.73
2023-08-19T22:45:37.283Z,12.52
2023-08-19T22:48:04.226Z,12.98
2023-08-19T22:50:32.505Z,13.15
2023-08-19T22:52:59.245Z,15.90
2023-08-19T22:55:28.029Z,12.05
2023-08-19T22:57:54.758Z,14.13
2023-08-19T23:00:21.586Z,16.23
2023-08-19T23:02:48.776Z,13.95
2023-08-19T23:05:16.401Z,18.37
2023-08-19T23:07:43.475Z,16.23
2023-08-19T23:10:11.697Z,16.90
2023-08-19T23:12:38.281Z,11.77
2023-08-19T23:15:04.897Z,15.98
2023-08-19T23:17:33.012Z,11.33
2023-08-19T23:19:59.764Z,14.70
2023-08-19T23:22:27.696Z,12.00
2023-08-19T23:24:54.187Z,16.15
2023-08-19T23:27:20.792Z,14.15
2023-08-19T23:29:47.232Z,12.87
2023-08-19T23:32:14.444Z,14.13
2023-08-19T23:34:41.142Z,15.85
2023-08-19T23:37:07.631Z,17.38
2023-08-19T23:39:34.732Z,13.18
2023-08-19T23:42:01.140Z,19.03
2023-08-19T23:44:28.335Z,16.40
2023-08-19T23:46:55.985Z,13.23
2023-08-19T23:49:22.801Z,20.17
2023-08-19T23:51:53.685Z,19.05
2023-08-19T23:54:22.463Z,18.77
2023-08-19T23:56:49.412Z,17.17
2023-08-19T23:59:16.396Z,13.68
